Time;durP1;ratioP1;P1;durP2;ratioP2;P2;SDS_P1;SDS_P2;PMS_P1;PMS_P2;Temp;Humidity;BMP_temperature;BMP_pressure;BME280_temperature;BME280_humidity;BME280_pressure;Samples;Min_cycle;Max_cycle;Signal;HPM_P1;HPM_P2
2023/06/25 00:00:05;;;;;;;0.00;0.00;;;21.30;73.50;;;;;;5068515;28;20162;-67
2023/06/25 00:02:30;;;;;;;0.00;0.00;;;21.20;73.70;;;;;;5068901;28;20044;-67
2023/06/25 00:04:56;;;;;;;0.00;0.00;;;21.10;73.60;;;;;;5068831;28;20043;-67
2023/06/25 00:07:22;;;;;;;0.00;0.00;;;21.10;73.50;;;;;;5069080;28;20163;-67
2023/06/25 00:09:55;;;;;;;0.00;0.00;;;21.10;73.30;;;;;;5072281;28;20036;-67
2023/06/25 00:12:21;;;;;;;0.00;0.00;;;21.10;73.60;;;;;;5072919;28;20048;-67
2023/06/25 00:14:46;;;;;;;0.00;0.00;;;21.00;73.90;;;;;;5071374;28;20045;-67
2023/06/25 00:17:17;;;;;;;0.00;0.00;;;21.00;73.90;;;;;;5072998;28;20076;-67
2023/06/25 00:19:43;;;;;;;0.00;0.00;;;20.90;74.10;;;;;;5072741;28;20447;-67
2023/06/25 00:22:11;;;;;;;0.00;0.00;;;20.80;73.90;;;;;;5072769;28;20180;-67
2023/06/25 00:24:37;;;;;;;0.00;0.00;;;20.80;73.50;;;;;;5072009;28;20047;-67
2023/06/25 00:27:03;;;;;;;0.00;0.00;;;20.80;73.60;;;;;;5072947;28;20048;-67
2023/06/25 00:29:28;;;;;;;0.00;0.00;;;20.70;73.80;;;;;;5072484;28;20339;-67
2023/06/25 00:31:54;;;;;;;0.00;0.00;;;20.70;73.70;;;;;;5072443;28;20405;-67
2023/06/25 00:34:20;;;;;;;0.55;0.32;;;20.70;73.70;;;;;;5072134;28;20420;-67
2023/06/25 00:36:45;;;;;;;0.00;0.00;;;20.60;73.60;;;;;;5072192;28;20080;-67
2023/06/25 00:39:11;;;;;;;0.00;0.00;;;20.70;73.80;;;;;;5054048;28;20062;-67
2023/06/25 00:41:39;;;;;;;0.93;0.85;;;20.60;73.90;;;;;;5072326;28;20036;-67
2023/06/25 00:44:07;;;;;;;0.00;0.00;;;20.60;74.20;;;;;;5072012;28;20056;-67
2023/06/25 00:46:33;;;;;;;0.00;0.00;;;20.60;74.00;;;;;;5071173;28;20507;-67
2023/06/25 00:49:05;;;;;;;0.00;0.00;;;20.60;74.20;;;;;;5072364;28;20040;-67
2023/06/25 00:51:34;;;;;;;0.00;0.00;;;20.60;74.40;;;;;;5071280;28;20064;-67
2023/06/25 00:54:01;;;;;;;0.00;0.00;;;20.60;74.50;;;;;;5070689;28;20131;-67
2023/06/25 00:56:29;;;;;;;0.00;0.00;;;20.60;74.50;;;;;;5072078;28;20048;-67
2023/06/25 00:59:01;;;;;;;0.00;0.00;;;20.60;74.40;;;;;;5070921;28;20481;-67
2023/06/25 01:01:48;;;;;;;0.00;0.00;;;20.60;74.20;;;;;;5071859;28;20520;-67
2023/06/25 01:04:27;;;;;;;0.00;0.00;;;20.60;74.20;;;;;;5071226;28;20173;-68
2023/06/25 01:06:57;;;;;;;0.47;0.32;;;20.50;74.10;;;;;;5071992;28;20593;-67
2023/06/25 01:09:25;;;;;;;0.00;0.00;;;20.50;74.20;;;;;;5071947;28;20044;-67
2023/06/25 01:12:04;;;;;;;0.00;0.00;;;20.50;74.00;;;;;;5071103;28;20059;-67
2023/06/25 01:14:32;;;;;;;0.00;0.00;;;20.50;74.20;;;;;;5071355;28;20516;-67
2023/06/25 01:16:59;;;;;;;0.00;0.00;;;20.50;74.30;;;;;;5071149;28;20603;-67
2023/06/25 01:19:29;;;;;;;0.00;0.00;;;20.50;74.30;;;;;;5070900;28;20588;-67
2023/06/25 01:22:04;;;;;;;0.00;0.00;;;20.40;74.40;;;;;;5071702;28;20040;-67
2023/06/25 01:24:32;;;;;;;0.00;0.00;;;20.40;74.80;;;;;;5071813;28;20048;-67
2023/06/25 01:27:04;;;;;;;0.00;0.00;;;20.40;75.00;;;;;;5070115;28;20458;-67
2023/06/25 01:29:30;;;;;;;0.00;0.00;;;20.40;75.00;;;;;;5071802;28;20048;-67
2023/06/25 01:31:57;;;;;;;0.00;0.00;;;20.30;75.10;;;;;;5071524;28;20084;-67
2023/06/25 01:34:23;;;;;;;0.00;0.00;;;20.30;75.10;;;;;;5070174;28;20079;-67
2023/06/25 01:36:51;;;;;;;0.00;0.00;;;20.30;74.80;;;;;;5070787;28;20052;-67
2023/06/25 01:39:18;;;;;;;0.00;0.00;;;20.30;75.40;;;;;;5071371;28;20041;-67
2023/06/25 01:41:44;;;;;;;0.00;0.00;;;20.20;75.50;;;;;;5070384;28;20037;-67
2023/06/25 01:44:14;;;;;;;0.00;0.00;;;20.20;75.40;;;;;;5071410;28;20054;-67
2023/06/25 01:46:39;;;;;;;0.00;0.00;;;20.20;75.40;;;;;;5069517;28;20036;-67
2023/06/25 01:49:05;;;;;;;0.00;0.00;;;20.10;75.20;;;;;;5071049;28;20051;-67
2023/06/25 01:51:33;;;;;;;0.10;0.10;;;20.10;75.20;;;;;;5070838;28;20170;-67
2023/06/25 01:53:59;;;;;;;0.00;0.00;;;20.10;75.30;;;;;;5070862;28;20126;-67
2023/06/25 01:56:25;;;;;;;0.00;0.00;;;20.10;75.70;;;;;;5070575;28;20457;-67
2023/06/25 01:58:53;;;;;;;0.00;0.00;;;20.10;75.80;;;;;;5070911;28;20080;-67
2023/06/25 02:01:21;;;;;;;0.00;0.00;;;20.00;75.60;;;;;;5069740;28;20071;-67
2023/06/25 02:03:47;;;;;;;0.00;0.00;;;20.00;75.50;;;;;;5070373;28;20094;-67
2023/06/25 02:06:14;;;;;;;0.00;0.00;;;20.10;75.70;;;;;;5070489;28;20044;-67
2023/06/25 02:08:40;;;;;;;0.00;0.00;;;20.00;75.90;;;;;;5069736;28;20048;-67
2023/06/25 02:11:06;;;;;;;0.00;0.00;;;20.00;75.90;;;;;;5086204;28;20043;-67
2023/06/25 02:13:33;;;;;;;0.00;0.00;;;20.00;75.60;;;;;;5069082;28;20081;-67
2023/06/25 02:15:59;;;;;;;0.00;0.00;;;20.00;75.70;;;;;;5070908;28;20041;-67
2023/06/25 02:18:24;;;;;;;0.00;0.00;;;20.00;75.70;;;;;;5070104;28;20548;-67
2023/06/25 02:20:50;;;;;;;0.00;0.00;;;19.90;75.80;;;;;;5070222;28;20603;-68
2023/06/25 02:23:15;;;;;;;0.00;0.00;;;20.00;76.00;;;;;;5070482;28;20040;-68
2023/06/25 02:25:41;;;;;;;0.00;0.00;;;20.00;75.90;;;;;;5069641;28;20052;-67
2023/06/25 02:28:07;;;;;;;0.00;0.00;;;19.90;76.00;;;;;;5068895;28;20050;-67
2023/06/25 02:30:32;;;;;;;0.00;0.00;;;19.90;76.00;;;;;;5069893;28;20032;-68
2023/06/25 02:32:58;;;;;;;0.00;0.00;;;19.90;76.10;;;;;;5069313;28;20037;-67
2023/06/25 02:35:23;;;;;;;0.00;0.00;;;19.80;76.30;;;;;;5069573;28;20040;-67
2023/06/25 02:37:49;;;;;;;0.00;0.00;;;19.80;76.40;;;;;;5069911;28;20044;-67
2023/06/25 02:40:15;;;;;;;0.00;0.00;;;19.70;76.20;;;;;;5070151;28;20048;-67
2023/06/25 02:42:40;;;;;;;0.00;0.00;;;19.80;76.20;;;;;;5069177;28;20048;-67
2023/06/25 02:45:06;;;;;;;0.00;0.00;;;19.70;76.30;;;;;;5068605;28;20448;-67
2023/06/25 02:47:32;;;;;;;0.00;0.00;;;19.70;76.70;;;;;;5069842;28;20041;-67
2023/06/25 02:49:57;;;;;;;0.00;0.00;;;19.70;76.60;;;;;;5069621;28;20178;-67
2023/06/25 02:52:23;;;;;;;0.00;0.00;;;19.60;76.60;;;;;;5069597;28;20048;-67
2023/06/25 02:54:48;;;;;;;0.00;0.00;;;19.60;76.60;;;;;;5069472;28;20052;-67
2023/06/25 02:57:14;;;;;;;0.00;0.00;;;19.60;76.80;;;;;;5070274;28;20473;-67
2023/06/25 02:59:39;;;;;;;0.00;0.00;;;19.60;76.80;;;;;;5069620;28;20167;-67
2023/06/25 03:02:05;;;;;;;0.05;0.05;;;19.60;76.60;;;;;;5068725;28;20049;-67
2023/06/25 03:04:30;;;;;;;0.00;0.00;;;19.60;76.90;;;;;;5069229;28;20127;-67
2023/06/25 03:06:56;;;;;;;0.00;0.00;;;19.60;76.70;;;;;;5069877;28;20182;-67
2023/06/25 03:09:22;;;;;;;0.00;0.00;;;19.60;76.70;;;;;;5069193;28;20117;-67
2023/06/25 03:11:47;;;;;;;0.00;0.00;;;19.60;76.60;;;;;;5068630;28;20044;-67
2023/06/25 03:14:13;;;;;;;0.00;0.00;;;19.60;76.80;;;;;;5068264;28;20101;-67
2023/06/25 03:16:38;;;;;;;0.00;0.00;;;19.60;76.60;;;;;;5069099;28;20044;-67
2023/06/25 03:19:05;;;;;;;0.00;0.00;;;19.60;76.60;;;;;;5068968;28;20044;-67
2023/06/25 03:21:30;;;;;;;0.00;0.00;;;19.50;76.70;;;;;;5069341;28;20051;-67
2023/06/25 03:23:56;;;;;;;0.00;0.00;;;19.60;76.70;;;;;;5051062;28;20040;-67
2023/06/25 03:26:22;;;;;;;0.00;0.00;;;19.60;76.70;;;;;;5069388;28;20382;-67
2023/06/25 03:28:48;;;;;;;0.00;0.00;;;19.60;76.50;;;;;;5068773;28;20130;-67
2023/06/25 03:31:13;;;;;;;0.00;0.00;;;19.60;76.60;;;;;;5069249;28;20049;-67
2023/06/25 03:33:39;;;;;;;0.00;0.00;;;19.60;76.50;;;;;;5067680;28;20040;-67
2023/06/25 03:36:04;;;;;;;0.00;0.00;;;19.60;76.60;;;;;;5068736;28;20040;-67
2023/06/25 03:38:30;;;;;;;0.00;0.00;;;19.60;76.70;;;;;;5068751;28;20405;-67
2023/06/25 03:40:56;;;;;;;0.00;0.00;;;19.60;76.70;;;;;;5068917;28;20044;-67
2023/06/25 03:43:21;;;;;;;0.03;0.03;;;19.60;76.60;;;;;;5067528;28;20048;-67
2023/06/25 03:45:47;;;;;;;0.00;0.00;;;19.60;76.70;;;;;;5068364;28;20051;-67
2023/06/25 03:48:12;;;;;;;0.00;0.00;;;19.60;77.00;;;;;;5051078;28;20040;-67
2023/06/25 03:50:38;;;;;;;0.00;0.00;;;19.50;76.90;;;;;;5068161;28;20746;-67
2023/06/25 03:53:04;;;;;;;0.00;0.00;;;19.60;76.90;;;;;;5069001;28;20059;-67
2023/06/25 03:55:30;;;;;;;0.00;0.00;;;19.50;77.10;;;;;;5067682;28;20040;-67
2023/06/25 03:57:56;;;;;;;0.00;0.00;;;19.50;77.20;;;;;;5069046;28;20101;-67
2023/06/25 04:00:22;;;;;;;0.10;0.10;;;19.50;76.90;;;;;;5067837;28;20040;-67
2023/06/25 04:02:47;;;;;;;0.00;0.00;;;19.50;77.20;;;;;;5068518;28;20040;-67
2023/06/25 04:05:13;;;;;;;0.00;0.00;;;19.50;77.40;;;;;;5068905;28;20090;-67
2023/06/25 04:07:38;;;;;;;0.00;0.00;;;19.50;77.00;;;;;;5068931;28;20143;-67
2023/06/25 04:10:04;;;;;;;0.00;0.00;;;19.50;77.20;;;;;;5067880;28;20041;-67
2023/06/25 04:12:30;;;;;;;0.00;0.00;;;19.50;77.00;;;;;;5069090;28;20048;-67
2023/06/25 04:14:56;;;;;;;0.00;0.00;;;19.50;77.20;;;;;;5069126;28;20598;-67
2023/06/25 04:17:22;;;;;;;0.00;0.00;;;19.50;77.00;;;;;;5068340;28;20048;-68
2023/06/25 04:19:47;;;;;;;0.00;0.00;;;19.50;76.70;;;;;;5068709;28;20123;-68
2023/06/25 04:22:13;;;;;;;0.00;0.00;;;19.50;76.70;;;;;;5067262;28;20079;-68
2023/06/25 04:24:39;;;;;;;0.00;0.00;;;19.50;76.50;;;;;;5067028;28;20041;-68
2023/06/25 04:27:05;;;;;;;0.00;0.00;;;19.50;76.50;;;;;;5068722;28;20102;-68
2023/06/25 04:29:31;;;;;;;0.00;0.00;;;19.50;77.00;;;;;;5068140;28;20043;-67
2023/06/25 04:31:56;;;;;;;0.00;0.00;;;19.50;77.30;;;;;;5067338;28;20048;-67
2023/06/25 04:34:22;;;;;;;0.00;0.00;;;19.50;76.90;;;;;;5067357;28;20052;-68
2023/06/25 04:36:47;;;;;;;0.00;0.00;;;19.50;76.50;;;;;;5068501;28;20049;-67
2023/06/25 04:39:13;;;;;;;0.00;0.00;;;19.50;76.40;;;;;;5067886;28;20048;-68
2023/06/25 04:41:39;;;;;;;0.00;0.00;;;19.60;76.40;;;;;;5068627;28;20047;-69
2023/06/25 04:44:04;;;;;;;0.00;0.00;;;19.50;76.20;;;;;;5052264;28;20513;-68
2023/06/25 04:46:30;;;;;;;0.00;0.00;;;19.50;76.00;;;;;;5067187;28;20120;-68
2023/06/25 04:48:56;;;;;;;0.10;0.10;;;19.60;76.40;;;;;;5067030;28;20033;-67
2023/06/25 04:51:21;;;;;;;0.00;0.00;;;19.60;76.80;;;;;;5062185;28;20140;-68
2023/06/25 04:53:47;;;;;;;0.00;0.00;;;19.60;77.30;;;;;;5067127;28;20059;-68
2023/06/25 04:56:15;;;;;;;0.00;0.00;;;19.70;77.00;;;;;;5068781;28;20074;-67
2023/06/25 04:58:40;;;;;;;0.00;0.00;;;19.70;76.70;;;;;;5072078;28;20050;-68
2023/06/25 05:01:06;;;;;;;0.00;0.00;;;19.80;76.80;;;;;;5071481;28;20044;-68
2023/06/25 05:03:32;;;;;;;0.00;0.00;;;19.80;76.80;;;;;;5069396;28;20106;-67
2023/06/25 05:05:58;;;;;;;0.00;0.00;;;19.80;76.90;;;;;;5070004;28;20110;-67
2023/06/25 05:08:23;;;;;;;0.00;0.00;;;19.90;76.70;;;;;;5070895;28;20044;-67
2023/06/25 05:10:49;;;;;;;0.00;0.00;;;19.90;76.70;;;;;;5069885;28;20084;-67
2023/06/25 05:13:14;;;;;;;0.55;0.55;;;19.90;76.70;;;;;;5066040;28;20500;-67
2023/06/25 05:15:41;;;;;;;0.00;0.00;;;19.90;76.60;;;;;;5051169;28;20056;-67
2023/06/25 05:18:10;;;;;;;0.00;0.00;;;20.00;76.50;;;;;;5050946;28;20049;-67
2023/06/25 05:20:36;;;;;;;0.10;0.10;;;20.00;76.60;;;;;;5050617;28;20518;-67
2023/06/25 05:23:06;;;;;;;0.00;0.00;;;20.00;76.70;;;;;;5051650;28;20078;-67
2023/06/25 05:25:35;;;;;;;0.00;0.00;;;20.10;76.50;;;;;;5066022;28;20049;-67
2023/06/25 05:28:01;;;;;;;0.00;0.00;;;20.10;76.10;;;;;;5067298;28;20048;-67
2023/06/25 05:30:31;;;;;;;0.00;0.00;;;20.10;76.10;;;;;;5070003;28;20052;-67
2023/06/25 05:32:57;;;;;;;0.00;0.00;;;20.20;76.00;;;;;;5068503;28;20060;-67
2023/06/25 05:35:23;;;;;;;0.00;0.00;;;20.20;76.00;;;;;;5059677;28;20048;-67
2023/06/25 05:37:49;;;;;;;0.00;0.00;;;20.30;75.80;;;;;;5060391;28;20103;-67
2023/06/25 05:40:16;;;;;;;0.00;0.00;;;20.30;75.70;;;;;;5056916;28;20045;-67
2023/06/25 05:42:41;;;;;;;0.00;0.00;;;20.30;75.60;;;;;;5069834;28;20036;-67
2023/06/25 05:45:08;;;;;;;0.00;0.00;;;20.40;75.60;;;;;;5070551;28;20555;-67
2023/06/25 05:47:33;;;;;;;0.00;0.00;;;20.50;75.70;;;;;;5070724;28;20082;-67
2023/06/25 05:49:59;;;;;;;0.00;0.00;;;20.50;75.60;;;;;;5051962;28;20072;-67
2023/06/25 05:52:25;;;;;;;0.00;0.00;;;20.60;75.60;;;;;;5070677;28;20467;-67
2023/06/25 05:54:50;;;;;;;0.00;0.00;;;20.60;75.50;;;;;;5070638;28;20052;-67
2023/06/25 05:57:16;;;;;;;0.00;0.00;;;20.70;75.30;;;;;;5071156;28;20076;-67
2023/06/25 05:59:42;;;;;;;0.00;0.00;;;20.70;75.10;;;;;;5069698;28;20059;-67
2023/06/25 06:02:08;;;;;;;0.00;0.00;;;20.80;74.90;;;;;;5070556;28;20040;-67
2023/06/25 06:04:34;;;;;;;0.00;0.00;;;20.80;74.80;;;;;;5068543;28;20052;-67
2023/06/25 06:07:00;;;;;;;0.00;0.00;;;20.90;74.60;;;;;;5070832;28;20397;-67
2023/06/25 06:09:26;;;;;;;0.00;0.00;;;20.90;74.40;;;;;;5067038;28;20032;-67
2023/06/25 06:11:51;;;;;;;0.00;0.00;;;21.00;74.20;;;;;;5070190;28;20059;-66
2023/06/25 06:14:17;;;;;;;0.00;0.00;;;21.00;73.90;;;;;;5070192;28;20386;-67
2023/06/25 06:16:42;;;;;;;0.00;0.00;;;21.10;74.00;;;;;;5069131;28;20040;-67
2023/06/25 06:19:08;;;;;;;0.00;0.00;;;21.10;73.60;;;;;;5069766;28;20075;-67
2023/06/25 06:21:34;;;;;;;0.00;0.00;;;21.20;73.60;;;;;;5067994;28;20097;-67
2023/06/25 06:23:59;;;;;;;0.00;0.00;;;21.30;73.60;;;;;;5070774;28;20056;-67
2023/06/25 06:26:26;;;;;;;0.00;0.00;;;21.30;73.60;;;;;;5068698;28;20048;-67
2023/06/25 06:28:52;;;;;;;0.00;0.00;;;21.40;73.60;;;;;;5070145;28;20052;-67
2023/06/25 06:31:18;;;;;;;0.00;0.00;;;21.40;73.50;;;;;;5068700;28;20040;-67
2023/06/25 06:33:43;;;;;;;0.00;0.00;;;21.50;73.60;;;;;;5070200;28;20052;-67
2023/06/25 06:36:09;;;;;;;0.00;0.00;;;21.60;73.50;;;;;;5085635;28;20400;-67
2023/06/25 06:38:35;;;;;;;0.00;0.00;;;21.70;73.40;;;;;;5069885;28;20037;-67
2023/06/25 06:41:01;;;;;;;0.00;0.00;;;21.80;72.90;;;;;;5070186;28;20043;-69
2023/06/25 06:43:26;;;;;;;0.17;0.17;;;21.90;72.60;;;;;;5069579;28;20039;-67
2023/06/25 06:45:52;;;;;;;0.00;0.00;;;22.00;72.30;;;;;;5069812;28;20079;-67
2023/06/25 06:48:17;;;;;;;0.00;0.00;;;22.10;71.90;;;;;;5069761;28;20040;-67
2023/06/25 06:50:43;;;;;;;0.00;0.00;;;22.20;71.60;;;;;;5069310;28;20420;-67
2023/06/25 06:53:09;;;;;;;0.00;0.00;;;22.30;71.50;;;;;;5069490;28;20066;-67
2023/06/25 06:55:34;;;;;;;0.10;0.10;;;22.40;71.40;;;;;;5069882;28;20516;-67
2023/06/25 06:58:00;;;;;;;0.00;0.00;;;22.50;71.30;;;;;;5069405;28;20052;-67
2023/06/25 07:00:26;;;;;;;0.00;0.00;;;22.50;71.30;;;;;;5069425;28;20028;-67
2023/06/25 07:02:55;;;;;;;0.00;0.00;;;22.60;71.20;;;;;;5067946;28;20507;-67
2023/06/25 07:05:22;;;;;;;0.45;0.45;;;22.60;71.10;;;;;;5083834;28;20186;-67
2023/06/25 07:07:47;;;;;;;0.00;0.00;;;22.60;71.30;;;;;;5069570;28;20102;-67
2023/06/25 07:10:13;;;;;;;0.00;0.00;;;22.70;71.20;;;;;;5069138;28;20420;-69
2023/06/25 07:12:38;;;;;;;0.00;0.00;;;22.80;71.50;;;;;;5069239;28;20048;-73
2023/06/25 07:15:04;;;;;;;0.00;0.00;;;22.90;71.60;;;;;;5068903;28;20075;-66
2023/06/25 07:17:30;;;;;;;0.00;0.00;;;23.00;71.50;;;;;;5068815;28;20489;-66
2023/06/25 07:19:56;;;;;;;0.20;0.20;;;23.10;71.30;;;;;;5068495;28;20052;-66
2023/06/25 07:22:21;;;;;;;0.00;0.00;;;23.10;70.90;;;;;;5069371;28;20493;-67
2023/06/25 07:24:47;;;;;;;0.00;0.00;;;23.10;70.80;;;;;;5068783;28;20099;-66
2023/06/25 07:27:12;;;;;;;0.45;0.45;;;23.20;70.70;;;;;;5068835;28;20325;-67
2023/06/25 07:29:38;;;;;;;0.00;0.00;;;23.20;70.60;;;;;;5068722;28;20094;-68
2023/06/25 07:32:04;;;;;;;0.00;0.00;;;23.30;70.50;;;;;;5069506;28;20062;-74
2023/06/25 07:34:29;;;;;;;0.20;0.20;;;23.30;70.50;;;;;;5068366;28;20336;-73
2023/06/25 07:36:55;;;;;;;0.00;0.00;;;23.40;70.10;;;;;;5070829;28;20040;-74
2023/06/25 07:39:26;;;;;;;0.00;0.00;;;23.50;70.10;;;;;;5069301;28;20044;-74
2023/06/25 07:41:53;;;;;;;0.13;0.13;;;23.50;70.10;;;;;;5068828;28;20094;-70
2023/06/25 07:44:18;;;;;;;0.00;0.00;;;23.60;70.00;;;;;;5051334;28;20047;-68
2023/06/25 07:46:44;;;;;;;0.25;0.25;;;23.70;70.10;;;;;;5069548;28;20044;-67
2023/06/25 07:49:10;;;;;;;0.00;0.00;;;23.80;69.20;;;;;;5068680;28;20041;-67
2023/06/25 07:51:35;;;;;;;0.65;0.65;;;23.80;69.40;;;;;;5050088;28;20458;-67
2023/06/25 07:54:01;;;;;;;0.20;0.20;;;23.90;68.40;;;;;;5067758;28;20044;-67
2023/06/25 07:56:26;;;;;;;0.00;0.00;;;24.00;68.90;;;;;;5067848;28;20041;-67
2023/06/25 07:58:52;;;;;;;0.00;0.00;;;24.00;69.10;;;;;;5068716;28;20044;-67
2023/06/25 08:01:17;;;;;;;0.30;0.30;;;24.00;68.40;;;;;;5084276;28;20040;-67
2023/06/25 08:03:43;;;;;;;0.17;0.17;;;24.10;68.20;;;;;;5068738;28;20044;-67
2023/06/25 08:06:08;;;;;;;0.00;0.00;;;24.20;68.00;;;;;;5066551;28;20052;-67
2023/06/25 08:08:34;;;;;;;0.00;0.00;;;24.30;68.50;;;;;;5068977;28;20076;-67
2023/06/25 08:11:00;;;;;;;0.00;0.00;;;24.30;68.50;;;;;;5068525;28;20083;-67
2023/06/25 08:13:25;;;;;;;0.00;0.00;;;24.40;67.00;;;;;;5068511;28;20040;-67
2023/06/25 08:15:51;;;;;;;0.08;0.08;;;24.50;66.70;;;;;;5067720;28;20116;-67
2023/06/25 08:18:16;;;;;;;0.00;0.00;;;24.60;67.20;;;;;;5067349;28;20044;-67
2023/06/25 08:20:43;;;;;;;0.05;0.05;;;24.60;67.20;;;;;;5068797;28;20055;-67
2023/06/25 08:23:08;;;;;;;0.00;0.00;;;24.80;66.50;;;;;;5068493;28;20041;-67
2023/06/25 08:25:34;;;;;;;0.00;0.00;;;24.80;64.80;;;;;;5067386;28;20040;-73
2023/06/25 08:27:59;;;;;;;0.00;0.00;;;24.90;65.30;;;;;;5067030;28;20139;-74
2023/06/25 08:30:25;;;;;;;0.00;0.00;;;25.00;64.50;;;;;;5072493;28;20079;-67
2023/06/25 08:32:50;;;;;;;0.00;0.00;;;25.00;63.40;;;;;;5072351;28;20052;-67
2023/06/25 08:35:16;;;;;;;2.13;1.20;;;25.10;63.30;;;;;;5072594;28;20055;-67
2023/06/25 08:37:42;;;;;;;0.00;0.00;;;25.20;63.10;;;;;;5072520;28;20510;-67
2023/06/25 08:40:10;;;;;;;0.00;0.00;;;25.30;61.40;;;;;;5072204;28;20051;-67
2023/06/25 08:42:36;;;;;;;1.10;0.30;;;25.40;61.50;;;;;;5071236;28;20037;-67
2023/06/25 08:45:02;;;;;;;2.50;1.17;;;25.40;62.10;;;;;;5072391;28;20086;-75
2023/06/25 08:47:37;;;;;;;0.00;0.00;;;25.50;60.80;;;;;;5071757;28;20127;-67
2023/06/25 08:50:03;;;;;;;0.00;0.00;;;25.60;61.60;;;;;;5052487;28;20107;-67
2023/06/25 08:52:29;;;;;;;0.00;0.00;;;25.60;60.20;;;;;;5059702;28;20091;-67
2023/06/25 08:54:55;;;;;;;0.00;0.00;;;25.70;59.00;;;;;;5069857;28;20049;-67
2023/06/25 08:57:21;;;;;;;0.20;0.20;;;25.80;59.50;;;;;;5071152;28;20086;-67
2023/06/25 08:59:47;;;;;;;0.00;0.00;;;25.90;59.60;;;;;;5071179;28;20037;-67
2023/06/25 09:02:12;;;;;;;0.10;0.00;;;26.00;60.80;;;;;;5053303;28;20053;-67
2023/06/25 09:04:38;;;;;;;0.10;0.10;;;26.00;57.60;;;;;;5070660;28;20094;-67
2023/06/25 09:07:07;;;;;;;0.08;0.08;;;26.10;56.30;;;;;;5071498;28;20043;-67
2023/06/25 09:09:33;;;;;;;1.20;1.13;;;26.10;55.90;;;;;;5071324;28;20063;-67
2023/06/25 09:11:59;;;;;;;0.00;0.00;;;26.20;57.30;;;;;;5071727;28;20036;-67
2023/06/25 09:14:25;;;;;;;0.00;0.00;;;26.30;56.90;;;;;;5071684;28;20123;-70
2023/06/25 09:16:51;;;;;;;1.90;1.20;;;26.40;57.90;;;;;;5070458;28;20048;-69
2023/06/25 09:19:20;;;;;;;0.10;0.10;;;26.40;56.30;;;;;;5071147;28;20037;-69
2023/06/25 09:21:47;;;;;;;0.00;0.00;;;26.50;58.30;;;;;;5071400;28;20524;-67
2023/06/25 09:24:15;;;;;;;0.10;0.10;;;26.60;56.80;;;;;;5071419;28;20048;-66
2023/06/25 09:26:49;;;;;;;0.10;0.10;;;26.60;52.60;;;;;;5052453;28;20049;-67
2023/06/25 09:29:16;;;;;;;0.00;0.00;;;26.70;56.40;;;;;;5070092;28;20174;-67
2023/06/25 09:31:43;;;;;;;0.15;0.15;;;26.70;56.10;;;;;;5070603;28;20075;-67
2023/06/25 09:34:09;;;;;;;0.10;0.10;;;26.80;54.50;;;;;;5071648;28;20098;-67
2023/06/25 09:36:35;;;;;;;0.13;0.13;;;26.90;53.40;;;;;;5071220;28;20044;-66
2023/06/25 09:39:03;;;;;;;0.00;0.00;;;27.00;53.40;;;;;;5069541;28;20501;-68
2023/06/25 09:41:29;;;;;;;0.15;0.15;;;27.00;55.50;;;;;;5070111;28;20421;-69
2023/06/25 09:43:59;;;;;;;0.00;0.00;;;27.00;54.70;;;;;;5071196;28;20053;-68
2023/06/25 09:46:26;;;;;;;0.00;0.00;;;27.10;56.00;;;;;;5053103;28;20138;-67
2023/06/25 09:48:55;;;;;;;0.00;0.00;;;27.20;55.70;;;;;;5070556;28;20103;-66
2023/06/25 09:51:28;;;;;;;0.00;0.00;;;27.20;54.20;;;;;;5070689;28;20049;-66
2023/06/25 09:53:56;;;;;;;0.00;0.00;;;27.30;55.30;;;;;;5070009;28;20568;-67
2023/06/25 09:56:24;;;;;;;0.00;0.00;;;27.40;52.10;;;;;;5069336;28;20045;-68
2023/06/25 09:58:50;;;;;;;0.03;0.03;;;27.40;52.40;;;;;;5069560;28;20489;-66
2023/06/25 10:01:15;;;;;;;0.00;0.00;;;27.40;53.40;;;;;;5070614;28;20048;-67
2023/06/25 10:03:42;;;;;;;0.43;0.22;;;27.50;52.60;;;;;;5070569;28;20087;-67
2023/06/25 10:06:08;;;;;;;0.00;0.00;;;27.50;52.40;;;;;;5069767;28;20044;-67
2023/06/25 10:08:35;;;;;;;0.20;0.10;;;27.50;52.40;;;;;;5070134;28;20098;-66
2023/06/25 10:11:04;;;;;;;0.00;0.00;;;27.60;52.40;;;;;;5070574;28;20041;-67
2023/06/25 10:13:30;;;;;;;0.30;0.30;;;27.70;53.30;;;;;;5069527;28;20036;-74
2023/06/25 10:16:02;;;;;;;0.00;0.00;;;27.80;54.00;;;;;;5069406;28;20051;-74
2023/06/25 10:18:28;;;;;;;0.00;0.00;;;27.80;50.90;;;;;;5070174;28;20447;-67
2023/06/25 10:20:58;;;;;;;0.10;0.10;;;27.80;50.10;;;;;;5052094;28;20123;-67
2023/06/25 10:23:24;;;;;;;0.80;0.65;;;27.80;52.70;;;;;;5069183;28;20045;-66
2023/06/25 10:25:55;;;;;;;0.00;0.00;;;27.90;52.20;;;;;;5069711;28;20135;-67
2023/06/25 10:28:36;;;;;;;0.00;0.00;;;27.90;52.10;;;;;;5069870;28;20036;-67
2023/06/25 10:31:15;;;;;;;0.03;0.03;;;28.00;53.30;;;;;;5069328;28;20136;-67
2023/06/25 10:33:42;;;;;;;0.00;0.00;;;28.00;50.30;;;;;;5069281;28;20497;-66
2023/06/25 10:36:08;;;;;;;0.00;0.00;;;28.10;50.80;;;;;;5069252;28;20037;-67
2023/06/25 10:38:34;;;;;;;0.00;0.00;;;28.10;50.10;;;;;;5069427;28;20119;-67
2023/06/25 10:41:00;;;;;;;0.05;0.05;;;28.10;50.10;;;;;;5070292;28;20119;-67
2023/06/25 10:43:26;;;;;;;0.00;0.00;;;28.20;49.70;;;;;;5069879;28;20056;-67
2023/06/25 10:45:53;;;;;;;0.10;0.10;;;28.30;49.60;;;;;;5069608;28;20044;-67
2023/06/25 10:48:20;;;;;;;0.00;0.00;;;28.30;49.90;;;;;;5070083;28;20111;-67
2023/06/25 10:50:45;;;;;;;0.00;0.00;;;28.30;50.70;;;;;;5069292;28;20056;-67
2023/06/25 10:53:13;;;;;;;0.30;0.25;;;28.40;45.40;;;;;;5068910;28;20052;-67
2023/06/25 10:55:43;;;;;;;0.10;0.10;;;28.50;47.80;;;;;;5068273;28;20052;-67
2023/06/25 10:58:09;;;;;;;0.00;0.00;;;28.50;45.00;;;;;;5068661;28;20040;-67
2023/06/25 11:00:34;;;;;;;0.00;0.00;;;28.60;47.90;;;;;;5068603;28;20401;-67
2023/06/25 11:03:00;;;;;;;0.00;0.00;;;28.60;46.00;;;;;;5068955;28;20048;-65
2023/06/25 11:05:39;;;;;;;0.13;0.13;;;28.70;45.60;;;;;;5068919;28;20451;-66
2023/06/25 11:08:07;;;;;;;1.20;0.65;;;28.70;44.40;;;;;;5049701;28;20048;-66
2023/06/25 11:10:34;;;;;;;0.00;0.00;;;28.60;44.20;;;;;;5057707;28;20036;-66
2023/06/25 11:13:00;;;;;;;0.00;0.00;;;28.70;45.20;;;;;;5067461;28;20410;-66
2023/06/25 11:15:30;;;;;;;0.00;0.00;;;28.80;43.20;;;;;;5069398;28;20051;-66
2023/06/25 11:17:56;;;;;;;0.00;0.00;;;28.80;44.50;;;;;;5068648;28;20127;-66
2023/06/25 11:20:23;;;;;;;0.00;0.00;;;28.80;45.00;;;;;;5068896;28;20124;-66
2023/06/25 11:22:49;;;;;;;0.15;0.15;;;28.90;47.50;;;;;;5064930;28;20040;-66
2023/06/25 11:25:15;;;;;;;0.03;0.03;;;29.00;45.60;;;;;;5066753;28;20493;-66
2023/06/25 11:27:41;;;;;;;0.00;0.00;;;29.00;43.30;;;;;;5066744;28;20045;-69
2023/06/25 11:30:08;;;;;;;0.00;0.00;;;29.00;42.80;;;;;;5067403;28;20037;-70
2023/06/25 11:32:37;;;;;;;0.00;0.00;;;29.10;44.50;;;;;;5067948;28;20416;-69
2023/06/25 11:35:13;;;;;;;0.00;0.00;;;29.20;41.10;;;;;;5069463;28;20044;-69
2023/06/25 11:37:43;;;;;;;0.00;0.00;;;29.30;40.30;;;;;;5067925;28;20132;-70
2023/06/25 11:40:29;;;;;;;0.00;0.00;;;29.40;42.10;;;;;;5069547;28;20055;-69
2023/06/25 11:42:55;;;;;;;0.00;0.00;;;29.40;39.70;;;;;;5068900;28;20405;-69
2023/06/25 11:45:22;;;;;;;0.63;0.45;;;29.30;40.40;;;;;;5069176;28;20045;-68
2023/06/25 11:47:53;;;;;;;3.47;0.88;;;29.40;39.30;;;;;;5068552;28;20539;-69
2023/06/25 11:50:22;;;;;;;0.00;0.00;;;29.50;41.10;;;;;;5067933;28;20094;-69
2023/06/25 11:52:48;;;;;;;0.00;0.00;;;29.60;38.60;;;;;;5068520;28;20053;-69
2023/06/25 11:55:14;;;;;;;0.00;0.00;;;29.70;39.60;;;;;;5068283;28;20040;-69
2023/06/25 11:57:40;;;;;;;0.00;0.00;;;29.80;38.90;;;;;;5050636;28;20042;-69
2023/06/25 12:00:07;;;;;;;0.00;0.00;;;29.90;38.20;;;;;;5067737;28;20052;-69
2023/06/25 12:02:33;;;;;;;0.00;0.00;;;30.00;41.00;;;;;;5068431;28;20098;-69
2023/06/25 12:04:58;;;;;;;0.00;0.00;;;30.10;42.20;;;;;;5068154;28;20052;-69
2023/06/25 12:07:24;;;;;;;0.20;0.20;;;30.20;41.60;;;;;;5068714;28;20485;-69
2023/06/25 12:09:49;;;;;;;0.00;0.00;;;30.30;40.90;;;;;;5067240;28;20045;-69
2023/06/25 12:12:15;;;;;;;0.00;0.00;;;30.40;41.30;;;;;;5068526;28;20477;-69
2023/06/25 12:14:41;;;;;;;0.00;0.00;;;30.40;41.00;;;;;;5067850;28;20041;-70
2023/06/25 12:17:07;;;;;;;0.00;0.00;;;30.50;41.90;;;;;;5068756;28;20048;-68
2023/06/25 12:19:33;;;;;;;0.13;0.10;;;30.40;39.90;;;;;;5068943;28;20036;-69
2023/06/25 12:21:58;;;;;;;0.57;0.55;;;30.40;40.40;;;;;;5068831;28;20467;-69
2023/06/25 12:24:24;;;;;;;0.00;0.00;;;30.50;39.60;;;;;;5068692;28;20472;-68
2023/06/25 12:26:50;;;;;;;0.00;0.00;;;30.50;39.40;;;;;;5068068;28;20405;-69
2023/06/25 12:29:15;;;;;;;0.00;0.00;;;30.60;38.70;;;;;;5068379;28;20044;-69
2023/06/25 12:31:41;;;;;;;0.38;0.32;;;30.70;39.90;;;;;;5068366;28;20051;-69
2023/06/25 12:34:06;;;;;;;0.70;0.47;;;30.70;39.00;;;;;;5068252;28;20045;-69
2023/06/25 12:36:32;;;;;;;0.05;0.05;;;30.80;40.30;;;;;;5068373;28;20494;-69
2023/06/25 12:39:00;;;;;;;0.00;0.00;;;30.80;39.80;;;;;;5068701;28;20541;-69
2023/06/25 12:41:26;;;;;;;0.20;0.10;;;30.70;38.50;;;;;;5068450;28;20420;-69
2023/06/25 12:43:52;;;;;;;1.38;0.98;;;30.70;41.00;;;;;;5067955;28;20654;-68